Round Valley, California
Current Conditions -  °F | °C
As of 7:56 PM on Tuesday 21 Oct 2014 (Local Time) from KBIH Reporting Station
Clear Clear  
Wind Chill: 63°   Ceiling: Unl
Heat Index: 63°   Visibility: 10mi
Dew Point: 17°   Wind: 9mph
Humidity: 17%   Direction: 360°N
Pressure: 29.95"   Gusts: NA
Location:  37.4772°N, 118.401°W
Report Text: KBIH 220256Z AUTO 36008KT 10SM CLR 17/M08 A2995 RMK AO2 SLP121 T01721083 53019
Loading
Personal Weather Stations






























Interactive Weather Map
Tropical Storm Tracking
New forecast layout! Learn more

10-Day Weather Forecast

Advertisements
Track Severe Weather on mobile